Kinetic-One TT, August 2014
Skip Navigation Links
Results
Race Series
Event Stats
13 August 2014
HyperLink
Page 1 of 1 (46 items)
Pos
Bib No
Fav
Share
Name
Time
Category
Cat Pos
Gender
Gen Pos
Club
Pace
Split 1
G/Pos
Lap 1
G/Pos
Lap 2
G/Pos
Lap 3
G/Pos
Lap 4
G/Pos
Lap 5
G/Pos
145Ben Anstie21:16.5Sen1Male1Cadence28.2 m/hr1:43.63:51.213:54.713:56.213:57.013:53.41
219Peter Kibble22:07.1Jun1Male2Sports Trader Race Team27.1 m/hr1:47.44:01.524:06.624:06.424:05.623:59.42
343Ross Bury23:25.1Vet1Male3Twenty 3c25.6 m/hr1:56.64:14.844:18.744:18.044:22.444:14.33
42Andy Morgan23:44.5Vet2Male4Kinetic One25.3 m/hr1:56.94:17.254:24.684:23.764:24.054:17.74
541Daniel Ford23:55.8Sen2Male5 25.1 m/hr1:54.74:21.864:23.964:24.684:27.284:23.47
640Will Poole24:00.0Sen3Male6The Triathlon Shop25.0 m/hr1:59.84:23.294:21.054:24.074:28.694:23.16
722Ian Barrett24:00.2Vet3Male7Hi Elbow25.0 m/hr1:57.34:28.2114:24.074:22.254:26.674:21.75
832Martin Aldam24:16.5Vet4Male8Frome And District Wheelers24.7 m/hr1:53.34:12.034:11.134:16.534:14.735:28.630
920Ian Moore24:20.1SupVet1Male9Cycology Bikes24.7 m/hr2:03.54:26.2134:27.494:31.294:26.264:25.39
1027Jamie Ford24:24.2Sen4Male10 24.6 m/hr1:56.14:21.674:30.6124:33.0104:34.0124:28.710
1121Ben Skinner24:24.8Sen5Male11Vibe Fitness Bath24.6 m/hr1:55.14:33.8124:27.8104:34.6114:30.0104:23.48
1234Jim Curry Andy Mcintyre24:28.72Up1Mixed1Performance Cycles24.5 m/hr1:58.24:26.114:30.314:31.514:31.914:30.41
1333Russ Thompson24:37.2Vet5Male12Performance Cycles24.4 m/hr1:58.74:26.5104:30.4114:34.6124:33.1114:33.711
1437Claire Hann24:40.9Sen1Female1BikeScience24.3 m/hr2:03.54:28.514:31.114:30.124:32.314:35.02
1542Sian Lloyd24:41.5Sen2Female2 24.3 m/hr2:03.94:28.924:32.524:29.014:34.124:32.91
1639Luke Davies25:01.4Jun2Male13VC St Raphael24.0 m/hr1:56.34:22.484:40.1154:36.3134:45.9164:40.213
1738Danny Lake25:15.3Sen6Male14 23.8 m/hr1:56.64:34.9144:39.3134:39.9154:39.4134:44.917
1811Martin Neill25:29.5Vet6Male15Flying Monk23.5 m/hr2:06.34:34.1164:44.9164:39.5144:45.3154:39.212
1935Ash Bennett25:37.0Sen7Male16 23.4 m/hr2:08.74:39.4174:39.3144:40.8164:44.6144:44.015
2023Jim Bishop25:44.9Vet7Male17Mct23.3 m/hr2:00.44:36.4154:45.2174:47.4184:49.0184:46.318
2115Anna Seymour25:49.3Sen3Female3 23.2 m/hr2:09.94:42.454:41.734:45.034:45.134:44.93
2214Fiona Nesfield26:00.8Sen4Female4Cheltenham & County Cycling Club23.1 m/hr2:05.14:38.144:46.844:48.344:56.254:46.04
2316Philip Ord26:13.1SupVet2Male18 22.9 m/hr2:10.24:51.8224:52.3194:46.3174:49.1194:43.214
2430Chrissie Waple26:18.1Sen5Female5 22.8 m/hr2:02.34:39.734:51.054:57.754:51.244:56.06
2524Jonathan Sinclair26:22.2SupVet3Male19 22.8 m/hr2:08.74:48.8194:52.2184:47.4194:47.6174:57.321
2626Robin Fox26:28.9SupVet4Male20Dursley RC22.7 m/hr2:18.54:48.6254:53.9214:50.2204:52.5204:44.916
2731Martin Ringrose26:40.9Vet8Male21 22.5 m/hr2:10.54:50.2204:53.1204:59.6244:54.9224:52.519
2813Graham Jones26:43.7SupVet5Male22Bath Cc22.4 m/hr2:02.24:51.5184:56.8244:55.9215:01.2234:55.920
298Harvey Phillips26:57.0Jun3Male23Charloteville Cc22.3 m/hr2:08.34:54.4234:56.4234:57.3234:54.9215:05.425
3036Mark Evans26:59.6SupVet6Male24Flying Monk22.2 m/hr2:10.04:51.6214:55.8224:57.0225:01.8245:03.324
3110Emma Seddon27:13.3Sen6Female6BAD Tri22.0 m/hr2:11.95:01.675:03.875:04.365:00.764:50.85
3218Isla Rush27:25.4Jun1Female7Wyndy Milla-Reynolds21.9 m/hr2:07.34:50.665:03.365:04.375:07.185:12.67
3325Matthew Brace27:34.4Sen8Male25BAD Tri21.8 m/hr2:09.24:57.6245:06.6255:10.0255:08.7255:02.023
347Ali Bradburns28:14.8Vet1Female8BAD Tri21.2 m/hr2:10.65:09.985:12.785:15.085:06.975:19.48
3517James Ireland28:21.1Sen9Male26Mct21.2 m/hr2:19.15:15.9295:14.3265:17.4275:13.9265:00.322
366Dick Martin28:32.0SupVet7Male27BAD Tri21.0 m/hr2:19.05:13.4285:14.4275:16.7265:14.7275:13.527
3729Ronnie Myers28:33.9Sen10Male28 21.0 m/hr2:07.75:12.3275:20.3285:22.6285:18.5285:12.326
3812Paul Rees29:25.4Sen11Male29Newport Phoenix Cc20.4 m/hr2:25.95:23.4305:24.1295:35.6315:19.9295:16.328
3928Michael Partner29:28.7Vet9Male30 20.4 m/hr2:05.75:04.9265:41.3325:35.0305:35.7325:25.929
4044Mike Rose30:12.3Sen12Male31Avon Valley Runners19.9 m/hr2:29.45:22.9325:25.6305:36.3325:34.8305:43.132
419Max Barnes30:14.7Jun4Male32Charloteville Cc19.8 m/hr2:24.85:25.9315:30.0315:32.3295:35.0315:46.533
421Graham Hewson30:47.3SupVet601Male33Simonstrong Campaigners19.5 m/hr2:28.15:37.4345:45.6335:39.0335:40.7335:36.331
435Richard Fitter31:33.4Vet10Male34Entran GTi19.0 m/hr2:15.35:48.2335:49.8345:57.5345:51.9345:50.334
4460Vicky Ody34:51.9Vet2Female9 17.2 m/hr3:05.96:27.396:23.196:20.896:23.696:11.09
453Pascal Galloway35:08.2Sen13Male35Mct17.1 m/hr2:36.66:18.2356:32.0356:40.8356:36.7356:23.635
464Aby Iyer37:30.5Sen7Female10Mct16.0 m/hr2:45.16:49.8106:53.1106:59.8106:58.0107:04.510
Page 1 of 1 (46 items)
fb

HyperLink Copyright (c) G Vincent, 2017